Wilson Norfolk — 9HA2466 — position and weather

sailwx.info

Track history (hours):
 
Tides and Currents Weather Stations Pressure Air Temp Water Temp Dewpoint Dewpoint Depression Visibility Wind Speed Wind Dir Waves Ship Positions

Wilson Norfolk

Last reported at 2015-Sep-03 20:06 UTC. Time now 2015-Sep-03 23:31 UTC.
Position N 43°19' W 001°55'.

Length 123 m; draft 7.5 m.

Type: Ship. MMSI: 248678000.

Date/timePositionNaut miles runAvg speedWind from/ knotsBaromVisibWave heightAir tempDewpointWater temp
2015-Sep-03 20:06N 43°19' W 001°55'0 0.0
2015-Sep-03 01:18N 43°19' W 001°55'0 0.0
2015-Sep-02 07:04N 43°19' W 001°55'2 3.7
2015-Sep-02 06:34N 43°21' W 001°56'1 0.4
2015-Sep-02 04:25N 43°21' W 001°55'0 0.0
2015-Sep-02 03:31N 43°21' W 001°55'0 0.0
2015-Sep-02 01:19N 43°21' W 001°55'0 0.0
2015-Aug-31 14:22N 43°21' W 001°55'0 0.0
2015-Aug-31 12:31N 43°21' W 001°55'0 0.0
2015-Aug-30 10:13N 43°21' W 001°55'0 0.1
2015-Aug-30 09:31N 43°21' W 001°55'0 0.1
2015-Aug-30 08:07N 43°21' W 001°55'0 0.1
2015-Aug-30 06:21N 43°21' W 001°55'9911.1
2015-Aug-29 21:22N 44°49' W 002°60'9211.6
2015-Aug-29 13:26N 46°10' W 004°01'1011.3
2015-Aug-29 12:33N 46°19' W 004°08'1210.7
2015-Aug-29 11:29N 46°29' W 004°16'1010.3
2015-Aug-29 10:32N 46°38' W 004°22'1110.6
2015-Aug-29 09:32N 46°47' W 004°30'1111.0
2015-Aug-29 08:33N 46°57' W 004°37'1311.0
2015-Aug-29 07:20N 47°09' W 004°46'810.7
2015-Aug-29 06:33N 47°16' W 004°52'1311.1
2015-Aug-29 05:22N 47°28' W 005°01'2511.1
2015-Aug-29 03:08N 47°50' W 005°18'710.6
2015-Aug-29 02:30N 47°56' W 005°22'10 9.7
2015-Aug-29 01:28N 48°05' W 005°29'9 9.6
2015-Aug-29 00:33N 48°12' W 005°35'23110.0
2015-Aug-28 01:32N 52°03' W 005°51'1211.9
2015-Aug-28 00:33N 52°15' W 005°48'1212.3
2015-Aug-27 23:33N 52°27' W 005°45'101 9.8
2015-Aug-27 13:12N 54°07' W 005°23'610.0
2015-Aug-27 12:33N 54°14' W 005°22'10 9.5
2015-Aug-27 11:34N 54°23' W 005°20'9 9.3
2015-Aug-27 10:33N 54°32' W 005°22'10 9.7
2015-Aug-27 09:33N 54°42' W 005°25'1110.6
2015-Aug-27 08:34N 54°51' W 005°34'1311.5
2015-Aug-27 07:26N 55°02' W 005°46'1012.1
2015-Aug-27 06:33N 55°11' W 005°56'1312.8
2015-Aug-27 05:33N 55°21' W 006°10'1110.8
2015-Aug-27 04:33N 55°29' W 006°23'1110.6
2015-Aug-27 03:33N 55°38' W 006°34'1010.3
2015-Aug-27 02:33N 55°46' W 006°43'10 9.6
2015-Aug-27 01:33N 55°55' W 006°52'  
Track history (hours):
 
Tides and Currents Weather Stations Pressure Air Temp Water Temp Dewpoint Dewpoint Depression Visibility Wind Speed Wind Dir Waves Ship Positions

Wilson Norfolk

Last reported at 2015-Sep-03 20:06 UTC. Time now 2015-Sep-03 23:31 UTC.
Position N 43°19' W 001°55'.

Length 123 m; draft 7.5 m.

Type: Ship. MMSI: 248678000.

Date/timePositionNaut miles runAvg speedWind from/ knotsBaromVisibWave heightAir tempDewpointWater temp
2015-Sep-03 20:06N 43°19' W 001°55'0 0.0
2015-Sep-03 01:18N 43°19' W 001°55'0 0.0
2015-Sep-02 07:04N 43°19' W 001°55'2 3.7
2015-Sep-02 06:34N 43°21' W 001°56'1 0.4
2015-Sep-02 04:25N 43°21' W 001°55'0 0.0
2015-Sep-02 03:31N 43°21' W 001°55'0 0.0
2015-Sep-02 01:19N 43°21' W 001°55'0 0.0
2015-Aug-31 14:22N 43°21' W 001°55'0 0.0
2015-Aug-31 12:31N 43°21' W 001°55'0 0.0
2015-Aug-30 10:13N 43°21' W 001°55'0 0.1
2015-Aug-30 09:31N 43°21' W 001°55'0 0.1
2015-Aug-30 08:07N 43°21' W 001°55'0 0.1
2015-Aug-30 06:21N 43°21' W 001°55'9911.1
2015-Aug-29 21:22N 44°49' W 002°60'9211.6
2015-Aug-29 13:26N 46°10' W 004°01'1011.3
2015-Aug-29 12:33N 46°19' W 004°08'1210.7
2015-Aug-29 11:29N 46°29' W 004°16'1010.3
2015-Aug-29 10:32N 46°38' W 004°22'1110.6
2015-Aug-29 09:32N 46°47' W 004°30'1111.0
2015-Aug-29 08:33N 46°57' W 004°37'1311.0
2015-Aug-29 07:20N 47°09' W 004°46'810.7
2015-Aug-29 06:33N 47°16' W 004°52'1311.1
2015-Aug-29 05:22N 47°28' W 005°01'2511.1
2015-Aug-29 03:08N 47°50' W 005°18'710.6
2015-Aug-29 02:30N 47°56' W 005°22'10 9.7
2015-Aug-29 01:28N 48°05' W 005°29'9 9.6
2015-Aug-29 00:33N 48°12' W 005°35'23110.0
2015-Aug-28 01:32N 52°03' W 005°51'1211.9
2015-Aug-28 00:33N 52°15' W 005°48'1212.3
2015-Aug-27 23:33N 52°27' W 005°45'101 9.8
2015-Aug-27 13:12N 54°07' W 005°23'610.0
2015-Aug-27 12:33N 54°14' W 005°22'10 9.5
2015-Aug-27 11:34N 54°23' W 005°20'9 9.3
2015-Aug-27 10:33N 54°32' W 005°22'10 9.7
2015-Aug-27 09:33N 54°42' W 005°25'1110.6
2015-Aug-27 08:34N 54°51' W 005°34'1311.5
2015-Aug-27 07:26N 55°02' W 005°46'1012.1
2015-Aug-27 06:33N 55°11' W 005°56'1312.8
2015-Aug-27 05:33N 55°21' W 006°10'1110.8
2015-Aug-27 04:33N 55°29' W 006°23'1110.6
2015-Aug-27 03:33N 55°38' W 006°34'1010.3
2015-Aug-27 02:33N 55°46' W 006°43'10 9.6
2015-Aug-27 01:33N 55°55' W 006°52'  

Dump ship's entire track history